createdAt,value
2022-12-20T00:00:24.325Z,90
2022-12-20T00:10:24.433Z,89
2022-12-20T00:20:25.065Z,90
2022-12-20T00:30:25.261Z,89
2022-12-20T00:40:26.349Z,88
2022-12-20T00:50:26.888Z,88
2022-12-20T01:00:27.239Z,86
2022-12-20T01:10:28.078Z,86
2022-12-20T01:20:29.064Z,86
2022-12-20T01:30:30.069Z,86
2022-12-20T01:40:31.011Z,86
2022-12-20T01:50:31.533Z,86
2022-12-20T02:00:31.802Z,86
2022-12-20T02:10:32.208Z,86
2022-12-20T02:20:33.009Z,86
2022-12-20T02:30:33.443Z,86
2022-12-20T02:40:34.374Z,86
2022-12-20T02:50:34.966Z,86
2022-12-20T03:00:35.544Z,87
2022-12-20T03:10:36.177Z,87
2022-12-20T03:20:36.981Z,88
2022-12-20T03:30:37.531Z,90
2022-12-20T03:40:37.812Z,91
2022-12-20T03:50:38.623Z,92
2022-12-20T04:00:39.113Z,92
2022-12-20T04:10:39.728Z,92
2022-12-20T04:20:40.588Z,93
2022-12-20T04:30:41.105Z,93
2022-12-20T04:40:41.745Z,93
2022-12-20T04:50:42.635Z,93
2022-12-20T05:30:45.670Z,96
2022-12-20T05:40:45.997Z,96
2022-12-20T06:00:47.405Z,96
2022-12-20T06:20:47.826Z,96
2022-12-20T06:30:47.985Z,96
2022-12-20T06:40:48.981Z,95
2022-12-20T07:20:51.794Z,92
2022-12-20T07:50:53.150Z,89
2022-12-20T08:30:54.832Z,87
2022-12-20T08:40:55.595Z,87
2022-12-20T08:50:55.959Z,87
2022-12-20T09:00:58.669Z,86
2022-12-20T09:10:57.877Z,86
2022-12-20T09:20:58.293Z,85
2022-12-20T09:40:59.057Z,84
2022-12-20T10:01:00.801Z,83
2022-12-20T10:11:01.053Z,84
2022-12-20T10:21:01.333Z,84
2022-12-20T10:31:01.834Z,86
2022-12-20T10:41:20.487Z,87
2022-12-20T10:51:02.674Z,87
2022-12-20T11:01:03.516Z,87
2022-12-20T11:11:04.210Z,87
2022-12-20T11:21:05.518Z,87
2022-12-20T11:31:06.125Z,87
2022-12-20T11:41:06.262Z,87
2022-12-20T11:51:10.923Z,87
2022-12-20T12:01:07.461Z,87
2022-12-20T12:11:15.558Z,87
2022-12-20T12:21:10.091Z,89
2022-12-20T12:31:09.924Z,88
2022-12-20T12:41:10.099Z,89
2022-12-20T12:51:10.941Z,88
2022-12-20T13:01:11.123Z,89
2022-12-20T13:11:11.913Z,89
2022-12-20T13:41:12.637Z,88
2022-12-20T13:51:12.738Z,93
2022-12-20T14:01:13.860Z,95
2022-12-20T14:11:14.090Z,97
2022-12-20T14:21:15.084Z,99
2022-12-20T14:31:16.144Z,100
2022-12-20T14:41:16.323Z,100
2022-12-20T14:51:16.543Z,100
2022-12-20T15:01:17.473Z,100
2022-12-20T15:11:18.045Z,100
2022-12-20T15:21:18.430Z,100
2022-12-20T15:31:19.234Z,100
2022-12-20T15:41:19.914Z,100
2022-12-20T15:51:20.605Z,100
2022-12-20T16:01:21.300Z,100
2022-12-20T16:11:22.469Z,100
2022-12-20T16:21:22.911Z,100
2022-12-20T16:31:23.279Z,100
2022-12-20T16:41:23.520Z,100
2022-12-20T16:51:23.861Z,100
2022-12-20T17:01:24.099Z,100
2022-12-20T17:11:24.649Z,100
2022-12-20T17:21:25.628Z,100
2022-12-20T17:41:26.897Z,100
2022-12-20T17:51:27.851Z,100
2022-12-20T18:01:28.625Z,100
2022-12-20T18:11:29.549Z,100
2022-12-20T18:31:30.578Z,100
2022-12-20T18:41:31.361Z,100
2022-12-20T18:51:32.396Z,100
2022-12-20T19:01:33.508Z,100
2022-12-20T19:11:33.760Z,100
2022-12-20T19:21:34.476Z,100
2022-12-20T19:31:34.685Z,100
2022-12-20T19:41:35.356Z,100
2022-12-20T19:51:35.569Z,100
2022-12-20T20:01:36.208Z,100
2022-12-20T20:11:36.407Z,100
2022-12-20T20:21:37.088Z,100
2022-12-20T20:31:38.241Z,100
2022-12-20T20:41:38.779Z,100
2022-12-20T20:51:39.052Z,100
2022-12-20T21:01:39.631Z,100
2022-12-20T21:11:40.028Z,100
2022-12-20T21:43:37.104Z,100
2022-12-20T21:50:52.899Z,100
2022-12-20T22:00:54.916Z,100
2022-12-20T22:10:53.843Z,100
2022-12-20T22:11:15.811Z,100
2022-12-20T22:21:01.275Z,100
2022-12-20T22:31:02.106Z,100
2022-12-20T22:51:02.804Z,100
2022-12-20T23:01:03.258Z,100
2022-12-20T23:11:03.545Z,100
2022-12-20T23:21:03.767Z,100
2022-12-20T23:31:04.043Z,100
2022-12-20T23:41:04.549Z,100
2022-12-20T23:51:05.138Z,100
